Home   Weather   Utah Mountain   Past weeks
Flag for USA

Past Weather in Utah Mountain, North Carolina, USA — Yesterday and Last 2 Weeks

Currently: 58 °F. Clear. (Weather station: Asheville Regional Airport, USA). See more current weather

Past Weather in Utah Mountain — Graph

°F

Utah Mountain Temperature Yesterday

Maximum temperature yesterday: 70 °F (at 3:54 pm)
Minimum temperature yesterday: 63 °F (at 8:54 am)
Average temperature yesterday: 66 °F

High & Low Weather Summary for the Past Weeks

 TemperatureHumidityPressure
High83 °F (Sep 14, 2:54 pm)100% (Sep 11, 3:38 am)30.35 "Hg (Sep 11, 3:38 am)
Low51 °F (Sep 11, 7:22 am)37% (Sep 10, 2:54 pm)29.80 "Hg (Sep 9, 3:54 am)
Average67 °F86%30.10 "Hg
* Reported Sep 7 7:54 pm — Sep 22 7:54 pm, Utah Mountain. Weather by CustomWeather, © 2021

Note: Actual official high and low records may vary slightly from our data, if they occured in-between our weather recording intervals... More about our weather records

Utah Mountain Weather History for the Previous 24 Hours

Scroll right to see more
 ConditionsComfort  
Time TempWeatherWind HumidityBarometerVisibility
7:54 pm
Wed, Sep 22
59 °FClear.9 mph81%29.86 "Hg10 mi
6:54 pm62 °FSunny.10 mph75%29.86 "Hg10 mi
5:54 pm62 °FPassing clouds.13 mph80%29.86 "Hg10 mi
5:12 pm61 °FBroken clouds.14 mph83%29.92 "Hg10 mi
4:54 pm62 °FScattered clouds.14 mph80%29.85 "Hg10 mi
3:54 pm61 °FCloudy.15 mph83%29.86 "Hg10 mi
2:54 pm59 °FLight rain. Fog.12 mph93%29.90 "Hg4 mi
2:28 pm58 °FHeavy rain. Fog.13 mph93%29.96 "Hg1 mi
2:22 pm58 °FHeavy rain. Fog.9 mph93%29.96 "Hg1 mi
2:14 pm58 °FRain. Fog.14 mph93%29.97 "Hg1 mi
1:59 pm58 °FRain. Fog.12 mph97%29.96 "Hg2 mi
1:18 pm60 °FRain. Fog.20 mph90%29.97 "Hg2 mi
1:12 pm61 °FRain. Fog.17 mph90%29.96 "Hg4 mi
12:54 pm73 °FMostly cloudy.8 mph81%29.86 "Hg10 mi
12:11 pm72 °FMostly cloudy.9 mph84%29.94 "Hg10 mi
12:01 pm71 °FOvercast.6 mph90%29.95 "Hg10 mi
11:37 am71 °FMostly cloudy.8 mph90%29.95 "Hg10 mi
10:54 am73 °FBroken clouds.9 mph88%29.89 "Hg10 mi
9:54 am67 °FMostly cloudy.6 mph97%29.92 "Hg10 mi
8:51 am66 °FHeavy rain. Fog.No wind94%29.99 "Hg1 mi
8:36 am66 °FLight rain. Fog.No wind96%29.99 "Hg2 mi
8:15 am66 °FRain. Fog.No wind96%30.00 "Hg2 mi
7:54 am66 °FLow clouds.No wind96%29.94 "Hg10 mi
6:54 am65 °FLow clouds.No wind100%29.93 "Hg10 mi
6:17 am65 °FMostly cloudy.No wind100%30.01 "Hg10 mi
5:54 am65 °FPassing clouds.3 mph97%29.94 "Hg10 mi
5:16 am65 °FMostly cloudy.No wind100%30.02 "Hg10 mi
4:54 am65 °FOvercast.3 mph100%29.96 "Hg10 mi
3:54 am66 °FLow clouds.No wind96%29.98 "Hg10 mi
3:34 am65 °FMostly cloudy.No wind100%30.05 "Hg10 mi
3:09 am65 °FMostly cloudy.3 mph100%30.06 "Hg10 mi
2:54 am65 °FMostly cloudy.No wind100%30.01 "Hg10 mi
2:39 am65 °FLight rain. Mostly cloudy.3 mph100%30.08 "Hg8 mi
2:11 am65 °FFog.No wind100%30.08 "Hg5 mi
2:04 am65 °FLight rain. Fog.No wind100%30.08 "Hg2 mi
1:54 am65 °FFog.3 mph100%30.02 "Hg3 mi
1:18 am65 °FFog.3 mph100%30.10 "Hg5 mi
12:54 am65 °FFog.3 mph100%30.04 "Hg5 mi
12:29 am65 °FLow clouds.3 mph100%30.11 "Hg10 mi
11:54 pm
Tue, Sep 21
65 °FFog.5 mph100%30.06 "Hg4 mi
10:54 pm65 °FMostly cloudy.5 mph97%30.08 "Hg10 mi
10:20 pm65 °FFog.3 mph97%30.14 "Hg6 mi
9:54 pm66 °FMostly cloudy.3 mph93%30.09 "Hg10 mi
Weather by CustomWeather, © 2021

See weather overview